sensor_id;sensor_type;location;lat;lon;timestamp;pressure;altitude;pressure_sealevel;temperature;humidity
9855;BME280;4966;48.112;9.282;2023-05-14T00:02:05;94615.75;;;12.10;85.27
9855;BME280;4966;48.112;9.282;2023-05-14T00:04:30;94609.94;;;11.96;86.04
9855;BME280;4966;48.112;9.282;2023-05-14T00:06:55;94611.34;;;12.05;85.63
9855;BME280;4966;48.112;9.282;2023-05-14T00:09:21;94604.41;;;12.08;85.15
9855;BME280;4966;48.112;9.282;2023-05-14T00:11:46;94607.34;;;12.31;84.19
9855;BME280;4966;48.112;9.282;2023-05-14T00:14:12;94592.97;;;12.18;84.31
9855;BME280;4966;48.112;9.282;2023-05-14T00:16:37;94593.53;;;12.40;83.54
9855;BME280;4966;48.112;9.282;2023-05-14T00:19:02;94596.69;;;12.42;83.11
9855;BME280;4966;48.112;9.282;2023-05-14T00:21:27;94596.00;;;12.45;82.99
9855;BME280;4966;48.112;9.282;2023-05-14T00:23:53;94589.31;;;12.42;82.91
9855;BME280;4966;48.112;9.282;2023-05-14T00:26:18;94587.97;;;12.20;84.62
9855;BME280;4966;48.112;9.282;2023-05-14T00:28:45;94593.72;;;12.31;83.96
9855;BME280;4966;48.112;9.282;2023-05-14T00:31:10;94590.00;;;12.23;84.49
9855;BME280;4966;48.112;9.282;2023-05-14T00:33:36;94588.25;;;12.31;84.19
9855;BME280;4966;48.112;9.282;2023-05-14T00:36:01;94588.16;;;12.27;84.61
9855;BME280;4966;48.112;9.282;2023-05-14T00:38:26;94585.53;;;12.31;84.28
9855;BME280;4966;48.112;9.282;2023-05-14T00:40:52;94583.22;;;12.33;84.04
9855;BME280;4966;48.112;9.282;2023-05-14T00:43:19;94577.41;;;12.03;85.08
9855;BME280;4966;48.112;9.282;2023-05-14T00:45:44;94576.25;;;12.04;84.72
9855;BME280;4966;48.112;9.282;2023-05-14T00:48:10;94576.44;;;12.11;84.24
9855;BME280;4966;48.112;9.282;2023-05-14T00:50:36;94582.25;;;12.25;83.73
9855;BME280;4966;48.112;9.282;2023-05-14T00:53:01;94581.56;;;12.28;83.24
9855;BME280;4966;48.112;9.282;2023-05-14T00:55:29;94587.63;;;12.22;83.74
9855;BME280;4966;48.112;9.282;2023-05-14T00:57:56;94587.38;;;12.27;83.69
9855;BME280;4966;48.112;9.282;2023-05-14T01:00:23;94584.44;;;12.04;84.83
9855;BME280;4966;48.112;9.282;2023-05-14T01:02:48;94589.69;;;11.97;85.40
9855;BME280;4966;48.112;9.282;2023-05-14T01:05:13;94576.34;;;11.79;86.38
9855;BME280;4966;48.112;9.282;2023-05-14T01:10:33;94580.28;;;11.94;84.93
9855;BME280;4966;48.112;9.282;2023-05-14T01:15:33;94580.84;;;12.16;84.33
9855;BME280;4966;48.112;9.282;2023-05-14T01:18:08;94584.72;;;12.15;84.53
9855;BME280;4966;48.112;9.282;2023-05-14T01:20:34;94591.75;;;12.16;84.89
9855;BME280;4966;48.112;9.282;2023-05-14T01:23:00;94583.75;;;12.23;84.54
9855;BME280;4966;48.112;9.282;2023-05-14T01:25:25;94576.56;;;12.46;83.55
9855;BME280;4966;48.112;9.282;2023-05-14T01:30:30;94575.94;;;12.53;83.15
9855;BME280;4966;48.112;9.282;2023-05-14T01:32:58;94568.03;;;12.48;83.63
9855;BME280;4966;48.112;9.282;2023-05-14T01:35:28;94565.97;;;12.45;84.13
9855;BME280;4966;48.112;9.282;2023-05-14T01:37:55;94570.75;;;12.48;84.25
9855;BME280;4966;48.112;9.282;2023-05-14T01:40:22;94572.44;;;12.52;84.29
9855;BME280;4966;48.112;9.282;2023-05-14T01:42:49;94563.25;;;12.61;83.45
9855;BME280;4966;48.112;9.282;2023-05-14T01:45:16;94562.75;;;12.55;83.66
9855;BME280;4966;48.112;9.282;2023-05-14T01:47:41;94559.66;;;12.41;84.39
9855;BME280;4966;48.112;9.282;2023-05-14T01:50:07;94566.06;;;12.01;87.55
9855;BME280;4966;48.112;9.282;2023-05-14T01:52:32;94558.50;;;12.26;85.95
9855;BME280;4966;48.112;9.282;2023-05-14T01:54:58;94560.53;;;12.29;85.33
9855;BME280;4966;48.112;9.282;2023-05-14T01:57:24;94562.13;;;12.14;86.46
9855;BME280;4966;48.112;9.282;2023-05-14T01:59:49;94565.38;;;12.36;85.18
9855;BME280;4966;48.112;9.282;2023-05-14T02:02:15;94563.97;;;12.42;85.35
9855;BME280;4966;48.112;9.282;2023-05-14T02:04:40;94566.44;;;12.47;84.75
9855;BME280;4966;48.112;9.282;2023-05-14T02:07:05;94563.06;;;12.38;85.56
9855;BME280;4966;48.112;9.282;2023-05-14T02:09:31;94556.94;;;12.41;85.36
9855;BME280;4966;48.112;9.282;2023-05-14T02:11:56;94553.22;;;12.49;85.00
9855;BME280;4966;48.112;9.282;2023-05-14T02:14:21;94555.25;;;12.52;84.96
9855;BME280;4966;48.112;9.282;2023-05-14T02:16:46;94558.59;;;12.61;84.56
9855;BME280;4966;48.112;9.282;2023-05-14T02:19:12;94560.53;;;12.61;84.63
9855;BME280;4966;48.112;9.282;2023-05-14T02:21:37;94554.47;;;12.51;84.99
9855;BME280;4966;48.112;9.282;2023-05-14T02:24:02;94562.13;;;12.46;85.45
9855;BME280;4966;48.112;9.282;2023-05-14T02:26:28;94561.91;;;12.70;84.15
9855;BME280;4966;48.112;9.282;2023-05-14T02:28:53;94558.75;;;12.68;84.01
9855;BME280;4966;48.112;9.282;2023-05-14T02:31:18;94555.69;;;12.54;85.09
9855;BME280;4966;48.112;9.282;2023-05-14T02:33:44;94544.44;;;12.55;85.35
9855;BME280;4966;48.112;9.282;2023-05-14T02:36:09;94552.84;;;12.66;84.85
9855;BME280;4966;48.112;9.282;2023-05-14T02:38:35;94557.34;;;12.74;84.36
9855;BME280;4966;48.112;9.282;2023-05-14T02:41:00;94553.56;;;12.79;84.38
9855;BME280;4966;48.112;9.282;2023-05-14T02:43:26;94550.63;;;12.88;84.00
9855;BME280;4966;48.112;9.282;2023-05-14T02:45:51;94553.59;;;12.98;83.24
9855;BME280;4966;48.112;9.282;2023-05-14T02:48:16;94548.03;;;12.95;83.45
9855;BME280;4966;48.112;9.282;2023-05-14T02:50:41;94548.66;;;13.04;83.19
9855;BME280;4966;48.112;9.282;2023-05-14T02:53:07;94540.81;;;13.03;82.78
9855;BME280;4966;48.112;9.282;2023-05-14T02:55:33;94541.53;;;12.99;82.54
9855;BME280;4966;48.112;9.282;2023-05-14T02:57:58;94541.19;;;13.01;82.45
9855;BME280;4966;48.112;9.282;2023-05-14T03:00:23;94531.31;;;12.96;82.12
9855;BME280;4966;48.112;9.282;2023-05-14T03:02:48;94525.84;;;12.96;82.31
9855;BME280;4966;48.112;9.282;2023-05-14T03:05:14;94533.25;;;12.96;82.28
9855;BME280;4966;48.112;9.282;2023-05-14T03:07:39;94533.13;;;13.08;81.70
9855;BME280;4966;48.112;9.282;2023-05-14T03:10:05;94537.09;;;13.11;81.47
9855;BME280;4966;48.112;9.282;2023-05-14T03:12:30;94525.94;;;13.00;82.13
9855;BME280;4966;48.112;9.282;2023-05-14T03:14:55;94532.09;;;12.97;82.14
9855;BME280;4966;48.112;9.282;2023-05-14T03:17:21;94526.50;;;13.09;81.51
9855;BME280;4966;48.112;9.282;2023-05-14T03:19:47;94529.63;;;13.08;81.70
9855;BME280;4966;48.112;9.282;2023-05-14T03:22:12;94529.19;;;13.06;82.14
9855;BME280;4966;48.112;9.282;2023-05-14T03:24:38;94533.78;;;13.02;82.28
9855;BME280;4966;48.112;9.282;2023-05-14T03:27:04;94525.44;;;13.14;81.79
9855;BME280;4966;48.112;9.282;2023-05-14T03:29:30;94528.69;;;13.00;82.23
9855;BME280;4966;48.112;9.282;2023-05-14T03:31:55;94536.22;;;13.07;82.09
9855;BME280;4966;48.112;9.282;2023-05-14T03:34:20;94538.25;;;13.10;82.03
9855;BME280;4966;48.112;9.282;2023-05-14T03:36:46;94533.91;;;13.09;81.95
9855;BME280;4966;48.112;9.282;2023-05-14T03:39:11;94538.78;;;12.99;81.73
9855;BME280;4966;48.112;9.282;2023-05-14T03:41:39;94539.97;;;13.18;81.21
9855;BME280;4966;48.112;9.282;2023-05-14T03:44:05;94542.34;;;13.00;82.12
9855;BME280;4966;48.112;9.282;2023-05-14T03:46:30;94534.59;;;12.86;82.68
9855;BME280;4966;48.112;9.282;2023-05-14T03:48:55;94539.31;;;12.70;84.20
9855;BME280;4966;48.112;9.282;2023-05-14T03:51:21;94539.22;;;12.66;85.21
9855;BME280;4966;48.112;9.282;2023-05-14T03:53:46;94533.09;;;12.22;86.89
9855;BME280;4966;48.112;9.282;2023-05-14T03:56:11;94539.75;;;12.56;86.33
9855;BME280;4966;48.112;9.282;2023-05-14T03:58:37;94536.59;;;12.54;86.90
9855;BME280;4966;48.112;9.282;2023-05-14T04:01:02;94536.34;;;12.43;87.49
9855;BME280;4966;48.112;9.282;2023-05-14T04:03:27;94541.53;;;12.48;88.09
9855;BME280;4966;48.112;9.282;2023-05-14T04:05:53;94536.13;;;12.68;86.74
9855;BME280;4966;48.112;9.282;2023-05-14T04:08:18;94536.22;;;12.71;86.52
9855;BME280;4966;48.112;9.282;2023-05-14T04:10:43;94538.25;;;12.74;86.53
9855;BME280;4966;48.112;9.282;2023-05-14T04:13:09;94534.63;;;12.70;86.65
9855;BME280;4966;48.112;9.282;2023-05-14T04:15:34;94535.53;;;12.59;87.33
9855;BME280;4966;48.112;9.282;2023-05-14T04:18:00;94533.75;;;12.66;86.92
9855;BME280;4966;48.112;9.282;2023-05-14T04:20:25;94533.41;;;12.68;86.54
9855;BME280;4966;48.112;9.282;2023-05-14T04:22:51;94541.00;;;12.43;87.56
9855;BME280;4966;48.112;9.282;2023-05-14T04:25:16;94531.31;;;12.45;89.12
9855;BME280;4966;48.112;9.282;2023-05-14T04:27:42;94537.03;;;12.40;88.57
9855;BME280;4966;48.112;9.282;2023-05-14T04:30:08;94534.06;;;12.45;88.91
9855;BME280;4966;48.112;9.282;2023-05-14T04:32:33;94532.28;;;12.53;88.42
9855;BME280;4966;48.112;9.282;2023-05-14T04:34:59;94526.44;;;12.54;88.02
9855;BME280;4966;48.112;9.282;2023-05-14T04:37:25;94524.63;;;12.59;87.90
9855;BME280;4966;48.112;9.282;2023-05-14T04:39:50;94531.75;;;12.63;87.50
9855;BME280;4966;48.112;9.282;2023-05-14T04:42:15;94535.00;;;12.53;88.90
9855;BME280;4966;48.112;9.282;2023-05-14T04:44:41;94535.00;;;12.53;88.94
9855;BME280;4966;48.112;9.282;2023-05-14T04:47:06;94521.34;;;12.69;88.97
9855;BME280;4966;48.112;9.282;2023-05-14T04:49:31;94527.75;;;12.76;88.65
9855;BME280;4966;48.112;9.282;2023-05-14T04:51:57;94532.41;;;12.76;88.14
9855;BME280;4966;48.112;9.282;2023-05-14T04:54:23;94527.84;;;12.80;88.01
9855;BME280;4966;48.112;9.282;2023-05-14T04:56:48;94525.63;;;12.86;87.96
9855;BME280;4966;48.112;9.282;2023-05-14T04:59:14;94528.03;;;13.07;86.15
9855;BME280;4966;48.112;9.282;2023-05-14T05:01:40;94530.53;;;12.96;85.77
9855;BME280;4966;48.112;9.282;2023-05-14T05:04:05;94531.91;;;13.06;85.02
9855;BME280;4966;48.112;9.282;2023-05-14T05:06:31;94529.81;;;12.99;85.61
9855;BME280;4966;48.112;9.282;2023-05-14T05:08:56;94533.13;;;13.08;85.15
9855;BME280;4966;48.112;9.282;2023-05-14T05:11:21;94527.88;;;13.19;84.95
9855;BME280;4966;48.112;9.282;2023-05-14T05:13:47;94532.03;;;13.29;85.39
9855;BME280;4966;48.112;9.282;2023-05-14T05:16:12;94529.13;;;13.22;86.31
9855;BME280;4966;48.112;9.282;2023-05-14T05:18:37;94531.13;;;13.05;86.34
9855;BME280;4966;48.112;9.282;2023-05-14T05:21:03;94527.03;;;13.15;85.70
9855;BME280;4966;48.112;9.282;2023-05-14T05:23:28;94531.63;;;13.11;85.74
9855;BME280;4966;48.112;9.282;2023-05-14T05:25:54;94524.47;;;13.22;85.20
9855;BME280;4966;48.112;9.282;2023-05-14T05:28:19;94523.59;;;13.18;85.70
9855;BME280;4966;48.112;9.282;2023-05-14T05:30:44;94523.66;;;13.22;85.62
9855;BME280;4966;48.112;9.282;2023-05-14T05:33:11;94526.66;;;13.16;85.66
9855;BME280;4966;48.112;9.282;2023-05-14T05:35:36;94530.38;;;13.24;85.97
9855;BME280;4966;48.112;9.282;2023-05-14T05:38:01;94536.81;;;13.16;84.06
9855;BME280;4966;48.112;9.282;2023-05-14T05:40:27;94525.59;;;13.21;84.16
9855;BME280;4966;48.112;9.282;2023-05-14T05:42:52;94522.56;;;13.26;84.58
9855;BME280;4966;48.112;9.282;2023-05-14T05:45:17;94534.78;;;13.48;84.57
9855;BME280;4966;48.112;9.282;2023-05-14T05:47:43;94527.00;;;13.70;83.32
9855;BME280;4966;48.112;9.282;2023-05-14T05:50:09;94531.66;;;13.69;83.21
9855;BME280;4966;48.112;9.282;2023-05-14T05:52:35;94529.66;;;13.66;82.11
9855;BME280;4966;48.112;9.282;2023-05-14T05:55:00;94535.47;;;13.65;82.05
9855;BME280;4966;48.112;9.282;2023-05-14T05:57:25;94527.00;;;13.70;82.43
9855;BME280;4966;48.112;9.282;2023-05-14T05:59:51;94532.53;;;13.73;82.78
9855;BME280;4966;48.112;9.282;2023-05-14T06:02:18;94532.88;;;13.72;81.30
9855;BME280;4966;48.112;9.282;2023-05-14T06:04:43;94526.06;;;13.62;82.30
9855;BME280;4966;48.112;9.282;2023-05-14T06:07:08;94524.28;;;12.95;83.71
9855;BME280;4966;48.112;9.282;2023-05-14T06:09:34;94531.78;;;13.18;84.24
9855;BME280;4966;48.112;9.282;2023-05-14T06:11:59;94527.22;;;13.42;83.72
9855;BME280;4966;48.112;9.282;2023-05-14T06:14:24;94532.59;;;13.57;82.75
9855;BME280;4966;48.112;9.282;2023-05-14T06:16:50;94525.94;;;13.74;82.17
9855;BME280;4966;48.112;9.282;2023-05-14T06:19:15;94531.94;;;13.83;82.12
9855;BME280;4966;48.112;9.282;2023-05-14T06:21:40;94532.34;;;13.63;81.13
9855;BME280;4966;48.112;9.282;2023-05-14T06:24:06;94533.22;;;13.90;81.09
9855;BME280;4966;48.112;9.282;2023-05-14T06:26:31;94529.75;;;13.70;79.07
9855;BME280;4966;48.112;9.282;2023-05-14T06:28:56;94542.97;;;13.68;80.25
9855;BME280;4966;48.112;9.282;2023-05-14T06:31:22;94539.44;;;14.10;79.96
9855;BME280;4966;48.112;9.282;2023-05-14T06:33:47;94529.13;;;14.22;79.70
9855;BME280;4966;48.112;9.282;2023-05-14T06:36:12;94522.81;;;14.18;78.28
9855;BME280;4966;48.112;9.282;2023-05-14T06:38:38;94522.34;;;13.93;78.29
9855;BME280;4966;48.112;9.282;2023-05-14T06:41:03;94528.56;;;14.36;77.89
9855;BME280;4966;48.112;9.282;2023-05-14T06:43:28;94523.84;;;14.56;77.28
9855;BME280;4966;48.112;9.282;2023-05-14T06:45:54;94525.16;;;14.66;75.74
9855;BME280;4966;48.112;9.282;2023-05-14T06:48:19;94521.75;;;14.73;75.51
9855;BME280;4966;48.112;9.282;2023-05-14T06:50:45;94533.22;;;15.08;75.55
9855;BME280;4966;48.112;9.282;2023-05-14T06:53:11;94526.81;;;15.27;75.82
9855;BME280;4966;48.112;9.282;2023-05-14T06:55:37;94525.66;;;15.28;75.25
9855;BME280;4966;48.112;9.282;2023-05-14T06:58:02;94531.25;;;15.36;74.13
9855;BME280;4966;48.112;9.282;2023-05-14T07:00:29;94528.38;;;14.98;73.15
9855;BME280;4966;48.112;9.282;2023-05-14T07:02:54;94517.53;;;14.79;74.19
9855;BME280;4966;48.112;9.282;2023-05-14T07:05:19;94516.47;;;15.14;72.99
9855;BME280;4966;48.112;9.282;2023-05-14T07:07:45;94522.25;;;14.82;72.04
9855;BME280;4966;48.112;9.282;2023-05-14T07:10:10;94518.78;;;15.12;70.90
9855;BME280;4966;48.112;9.282;2023-05-14T07:12:36;94522.31;;;15.42;70.91
9855;BME280;4966;48.112;9.282;2023-05-14T07:15:01;94524.41;;;15.22;71.79
9855;BME280;4966;48.112;9.282;2023-05-14T07:17:26;94519.81;;;15.30;72.08
9855;BME280;4966;48.112;9.282;2023-05-14T07:19:52;94526.03;;;15.27;72.84
9855;BME280;4966;48.112;9.282;2023-05-14T07:22:19;94524.31;;;14.62;73.60
9855;BME280;4966;48.112;9.282;2023-05-14T07:24:45;94527.56;;;14.94;75.30
9855;BME280;4966;48.112;9.282;2023-05-14T07:27:10;94523.63;;;15.22;74.23
9855;BME280;4966;48.112;9.282;2023-05-14T07:29:36;94527.88;;;15.19;72.88
9855;BME280;4966;48.112;9.282;2023-05-14T07:32:02;94520.59;;;15.30;73.94
9855;BME280;4966;48.112;9.282;2023-05-14T07:34:27;94512.25;;;14.93;72.30
9855;BME280;4966;48.112;9.282;2023-05-14T07:36:53;94521.38;;;15.01;74.27
9855;BME280;4966;48.112;9.282;2023-05-14T07:39:18;94528.63;;;15.16;72.91
9855;BME280;4966;48.112;9.282;2023-05-14T07:41:43;94523.38;;;15.04;73.15
9855;BME280;4966;48.112;9.282;2023-05-14T07:44:09;94524.72;;;14.87;74.91
9855;BME280;4966;48.112;9.282;2023-05-14T07:46:35;94518.63;;;15.01;72.17
9855;BME280;4966;48.112;9.282;2023-05-14T07:49:01;94523.00;;;15.05;73.31
9855;BME280;4966;48.112;9.282;2023-05-14T07:51:27;94517.06;;;15.00;72.10
9855;BME280;4966;48.112;9.282;2023-05-14T07:53:53;94517.25;;;15.14;72.95
9855;BME280;4966;48.112;9.282;2023-05-14T07:56:20;94519.78;;;15.00;74.05
9855;BME280;4966;48.112;9.282;2023-05-14T07:58:46;94525.38;;;14.80;72.93
9855;BME280;4966;48.112;9.282;2023-05-14T08:01:11;94529.19;;;14.49;74.81
9855;BME280;4966;48.112;9.282;2023-05-14T08:03:37;94513.59;;;14.76;74.01
9855;BME280;4966;48.112;9.282;2023-05-14T08:06:02;94521.81;;;14.76;73.64
9855;BME280;4966;48.112;9.282;2023-05-14T08:08:28;94516.78;;;14.82;74.94
9855;BME280;4966;48.112;9.282;2023-05-14T08:10:54;94518.03;;;14.84;74.23
9855;BME280;4966;48.112;9.282;2023-05-14T08:13:19;94519.81;;;14.73;73.38
9855;BME280;4966;48.112;9.282;2023-05-14T08:15:45;94513.06;;;14.67;73.32
9855;BME280;4966;48.112;9.282;2023-05-14T08:18:10;94515.47;;;14.99;72.77
9855;BME280;4966;48.112;9.282;2023-05-14T08:20:35;94522.25;;;14.82;73.26
9855;BME280;4966;48.112;9.282;2023-05-14T08:23:01;94515.28;;;14.84;75.90
9855;BME280;4966;48.112;9.282;2023-05-14T08:25:26;94508.94;;;15.07;75.67
9855;BME280;4966;48.112;9.282;2023-05-14T08:27:51;94507.44;;;15.13;74.34
9855;BME280;4966;48.112;9.282;2023-05-14T08:30:18;94510.78;;;15.29;72.92
9855;BME280;4966;48.112;9.282;2023-05-14T08:32:44;94517.44;;;15.28;71.75
9855;BME280;4966;48.112;9.282;2023-05-14T08:35:09;94509.69;;;15.34;72.12
9855;BME280;4966;48.112;9.282;2023-05-14T08:37:35;94518.31;;;15.36;69.03
9855;BME280;4966;48.112;9.282;2023-05-14T08:40:00;94510.09;;;15.06;70.15
9855;BME280;4966;48.112;9.282;2023-05-14T08:42:27;94508.31;;;15.51;69.42
9855;BME280;4966;48.112;9.282;2023-05-14T08:44:59;94505.31;;;15.29;70.09
9855;BME280;4966;48.112;9.282;2023-05-14T08:47:29;94514.38;;;15.67;68.01
9855;BME280;4966;48.112;9.282;2023-05-14T08:50:05;94509.78;;;15.11;64.87
9855;BME280;4966;48.112;9.282;2023-05-14T08:52:32;94511.09;;;15.21;66.04
9855;BME280;4966;48.112;9.282;2023-05-14T08:55:02;94514.13;;;14.85;68.30
9855;BME280;4966;48.112;9.282;2023-05-14T08:57:29;94511.03;;;14.87;69.56
9855;BME280;4966;48.112;9.282;2023-05-14T08:59:56;94519.69;;;14.66;71.79
9855;BME280;4966;48.112;9.282;2023-05-14T09:02:29;94512.97;;;15.17;71.44
9855;BME280;4966;48.112;9.282;2023-05-14T09:04:57;94502.56;;;15.29;70.80
9855;BME280;4966;48.112;9.282;2023-05-14T09:07:23;94510.91;;;15.06;69.45
9855;BME280;4966;48.112;9.282;2023-05-14T09:09:49;94505.69;;;15.28;67.88
9855;BME280;4966;48.112;9.282;2023-05-14T09:12:15;94509.59;;;15.27;69.53
9855;BME280;4966;48.112;9.282;2023-05-14T09:14:40;94507.00;;;15.38;68.58
9855;BME280;4966;48.112;9.282;2023-05-14T09:17:07;94504.06;;;15.23;67.80
9855;BME280;4966;48.112;9.282;2023-05-14T09:19:32;94499.38;;;15.54;66.54
9855;BME280;4966;48.112;9.282;2023-05-14T09:21:58;94498.56;;;15.87;64.83
9855;BME280;4966;48.112;9.282;2023-05-14T09:24:25;94488.91;;;16.45;61.22
9855;BME280;4966;48.112;9.282;2023-05-14T09:26:56;94495.44;;;17.44;59.68
9855;BME280;4966;48.112;9.282;2023-05-14T09:29:25;94497.50;;;17.65;57.24
9855;BME280;4966;48.112;9.282;2023-05-14T09:31:53;94489.75;;;17.08;58.63
9855;BME280;4966;48.112;9.282;2023-05-14T09:34:28;94482.50;;;17.48;58.03
9855;BME280;4966;48.112;9.282;2023-05-14T09:37:02;94484.59;;;16.96;59.30
9855;BME280;4966;48.112;9.282;2023-05-14T09:39:29;94482.88;;;16.77;59.34
9855;BME280;4966;48.112;9.282;2023-05-14T09:41:55;94481.19;;;16.62;60.89
9855;BME280;4966;48.112;9.282;2023-05-14T09:44:20;94485.75;;;16.91;61.13
9855;BME280;4966;48.112;9.282;2023-05-14T09:46:46;94489.63;;;15.94;60.83
9855;BME280;4966;48.112;9.282;2023-05-14T09:49:12;94484.06;;;16.28;62.00
9855;BME280;4966;48.112;9.282;2023-05-14T09:51:38;94477.28;;;16.66;61.16
9855;BME280;4966;48.112;9.282;2023-05-14T09:54:04;94479.78;;;16.82;60.80
9855;BME280;4966;48.112;9.282;2023-05-14T09:56:34;94477.16;;;17.00;59.08
9855;BME280;4966;48.112;9.282;2023-05-14T09:59:00;94475.03;;;17.49;58.93
9855;BME280;4966;48.112;9.282;2023-05-14T10:01:27;94465.78;;;18.14;57.24
9855;BME280;4966;48.112;9.282;2023-05-14T10:03:53;94472.50;;;18.70;57.52
9855;BME280;4966;48.112;9.282;2023-05-14T10:06:22;94462.31;;;19.84;51.02
9855;BME280;4966;48.112;9.282;2023-05-14T10:08:53;94458.78;;;20.43;52.35
9855;BME280;4966;48.112;9.282;2023-05-14T10:11:23;94470.28;;;19.61;52.04
9855;BME280;4966;48.112;9.282;2023-05-14T10:16:33;94474.47;;;18.56;54.24
9855;BME280;4966;48.112;9.282;2023-05-14T10:19:06;94467.19;;;17.51;55.21
9855;BME280;4966;48.112;9.282;2023-05-14T10:21:34;94468.41;;;17.71;55.40
9855;BME280;4966;48.112;9.282;2023-05-14T10:24:01;94460.44;;;17.37;56.32
9855;BME280;4966;48.112;9.282;2023-05-14T10:26:26;94472.31;;;17.59;55.82
9855;BME280;4966;48.112;9.282;2023-05-14T10:28:52;94471.59;;;16.89;56.84
9855;BME280;4966;48.112;9.282;2023-05-14T10:31:22;94469.72;;;17.04;56.44
9855;BME280;4966;48.112;9.282;2023-05-14T10:33:50;94476.38;;;17.03;57.98
9855;BME280;4966;48.112;9.282;2023-05-14T10:36:17;94473.88;;;17.57;55.75
9855;BME280;4966;48.112;9.282;2023-05-14T10:38:43;94459.75;;;17.58;54.37
9855;BME280;4966;48.112;9.282;2023-05-14T10:41:12;94473.09;;;17.53;54.59
9855;BME280;4966;48.112;9.282;2023-05-14T10:43:40;94468.69;;;17.37;54.99
9855;BME280;4966;48.112;9.282;2023-05-14T10:46:07;94471.13;;;17.57;54.07
9855;BME280;4966;48.112;9.282;2023-05-14T10:48:33;94469.66;;;17.84;55.15
9855;BME280;4966;48.112;9.282;2023-05-14T10:50:59;94463.72;;;17.75;53.19
9855;BME280;4966;48.112;9.282;2023-05-14T10:53:32;94470.13;;;18.47;53.00
9855;BME280;4966;48.112;9.282;2023-05-14T10:56:05;94461.03;;;19.01;52.08
9855;BME280;4966;48.112;9.282;2023-05-14T10:58:34;94465.41;;;18.26;53.78
9855;BME280;4966;48.112;9.282;2023-05-14T11:01:00;94462.66;;;18.37;54.05
9855;BME280;4966;48.112;9.282;2023-05-14T11:03:29;94464.53;;;17.79;53.85
9855;BME280;4966;48.112;9.282;2023-05-14T11:06:02;94465.38;;;17.94;53.86
9855;BME280;4966;48.112;9.282;2023-05-14T11:08:27;94458.91;;;17.47;53.55
9855;BME280;4966;48.112;9.282;2023-05-14T11:10:53;94455.81;;;17.56;53.61
9855;BME280;4966;48.112;9.282;2023-05-14T11:13:20;94459.88;;;18.16;54.78
9855;BME280;4966;48.112;9.282;2023-05-14T11:15:45;94445.13;;;19.48;49.44
9855;BME280;4966;48.112;9.282;2023-05-14T11:18:12;94443.78;;;19.85;47.95
9855;BME280;4966;48.112;9.282;2023-05-14T11:20:38;94444.81;;;20.12;48.61
9855;BME280;4966;48.112;9.282;2023-05-14T11:23:03;94442.44;;;19.37;46.36
9855;BME280;4966;48.112;9.282;2023-05-14T11:25:29;94444.81;;;19.24;48.93
9855;BME280;4966;48.112;9.282;2023-05-14T11:27:54;94439.75;;;19.12;50.51
9855;BME280;4966;48.112;9.282;2023-05-14T11:30:25;94436.13;;;19.29;49.79
9855;BME280;4966;48.112;9.282;2023-05-14T11:32:50;94438.97;;;19.01;50.58
9855;BME280;4966;48.112;9.282;2023-05-14T11:35:16;94424.28;;;19.36;49.11
9855;BME280;4966;48.112;9.282;2023-05-14T11:37:43;94431.56;;;18.76;49.89
9855;BME280;4966;48.112;9.282;2023-05-14T11:40:14;94425.03;;;19.44;47.79
9855;BME280;4966;48.112;9.282;2023-05-14T11:42:43;94413.16;;;21.45;44.41
9855;BME280;4966;48.112;9.282;2023-05-14T11:45:12;94412.88;;;23.59;40.90
9855;BME280;4966;48.112;9.282;2023-05-14T11:47:39;94409.78;;;23.93;37.73
9855;BME280;4966;48.112;9.282;2023-05-14T11:50:05;94414.44;;;24.98;36.74
9855;BME280;4966;48.112;9.282;2023-05-14T11:52:37;94406.19;;;23.76;37.30
9855;BME280;4966;48.112;9.282;2023-05-14T11:55:03;94400.41;;;22.36;40.29
9855;BME280;4966;48.112;9.282;2023-05-14T11:57:29;94406.81;;;22.06;40.32
9855;BME280;4966;48.112;9.282;2023-05-14T11:59:55;94402.47;;;20.75;42.17
9855;BME280;4966;48.112;9.282;2023-05-14T12:02:25;94406.63;;;20.52;43.14
9855;BME280;4966;48.112;9.282;2023-05-14T12:04:52;94405.00;;;21.00;42.64
9855;BME280;4966;48.112;9.282;2023-05-14T12:07:17;94400.09;;;21.11;43.53
9855;BME280;4966;48.112;9.282;2023-05-14T12:09:47;94396.56;;;20.73;43.54
9855;BME280;4966;48.112;9.282;2023-05-14T12:12:17;94386.03;;;20.60;44.86
9855;BME280;4966;48.112;9.282;2023-05-14T12:14:43;94383.59;;;20.66;43.95
9855;BME280;4966;48.112;9.282;2023-05-14T12:17:14;94383.72;;;21.28;42.41
9855;BME280;4966;48.112;9.282;2023-05-14T12:19:40;94396.25;;;21.70;43.58
9855;BME280;4966;48.112;9.282;2023-05-14T12:22:07;94383.34;;;20.91;45.41
9855;BME280;4966;48.112;9.282;2023-05-14T12:24:32;94387.47;;;21.48;45.02
9855;BME280;4966;48.112;9.282;2023-05-14T12:26:59;94391.91;;;21.69;44.46
9855;BME280;4966;48.112;9.282;2023-05-14T12:29:25;94379.88;;;20.84;45.83
9855;BME280;4966;48.112;9.282;2023-05-14T12:31:50;94379.13;;;21.14;45.22
9855;BME280;4966;48.112;9.282;2023-05-14T12:34:16;94373.59;;;23.00;41.44
9855;BME280;4966;48.112;9.282;2023-05-14T12:36:42;94365.28;;;23.20;40.98
9855;BME280;4966;48.112;9.282;2023-05-14T12:39:09;94366.88;;;22.98;37.96
9855;BME280;4966;48.112;9.282;2023-05-14T12:41:35;94372.00;;;22.56;39.61
9855;BME280;4966;48.112;9.282;2023-05-14T12:44:01;94371.28;;;21.74;43.03
9855;BME280;4966;48.112;9.282;2023-05-14T12:46:27;94367.38;;;21.40;44.03
9855;BME280;4966;48.112;9.282;2023-05-14T12:48:53;94364.03;;;21.22;43.87
9855;BME280;4966;48.112;9.282;2023-05-14T12:51:18;94360.91;;;20.86;45.05
9855;BME280;4966;48.112;9.282;2023-05-14T12:53:44;94363.38;;;19.83;47.21
9855;BME280;4966;48.112;9.282;2023-05-14T12:56:09;94359.69;;;20.00;46.36
9855;BME280;4966;48.112;9.282;2023-05-14T12:58:35;94353.63;;;20.16;47.63
9855;BME280;4966;48.112;9.282;2023-05-14T13:01:00;94353.16;;;20.28;47.22
9855;BME280;4966;48.112;9.282;2023-05-14T13:03:26;94355.72;;;20.01;47.43
9855;BME280;4966;48.112;9.282;2023-05-14T13:05:52;94349.19;;;19.81;47.55
9855;BME280;4966;48.112;9.282;2023-05-14T13:08:18;94349.09;;;19.25;47.81
9855;BME280;4966;48.112;9.282;2023-05-14T13:10:46;94352.84;;;18.61;51.12
9855;BME280;4966;48.112;9.282;2023-05-14T13:13:11;94356.84;;;18.35;55.07
9855;BME280;4966;48.112;9.282;2023-05-14T13:15:37;94362.31;;;17.70;55.47
9855;BME280;4966;48.112;9.282;2023-05-14T13:18:03;94359.50;;;17.38;55.69
9855;BME280;4966;48.112;9.282;2023-05-14T13:20:28;94358.63;;;17.05;56.38
9855;BME280;4966;48.112;9.282;2023-05-14T13:22:55;94353.31;;;16.68;57.84
9855;BME280;4966;48.112;9.282;2023-05-14T13:25:21;94349.06;;;16.74;58.19
9855;BME280;4966;48.112;9.282;2023-05-14T13:27:46;94346.59;;;15.95;62.24